createdAt,value
2022-12-19T01:36:17.006Z,102519.70
2022-12-19T01:38:49.755Z,102518.31
2022-12-19T01:41:22.385Z,102513.41
2022-12-19T01:44:02.806Z,102516.52
2022-12-19T01:46:55.907Z,102526.69
2022-12-19T01:49:32.842Z,102520.05
2022-12-19T01:52:08.521Z,102518.34
2022-12-19T01:54:44.597Z,102515.24
2022-12-19T01:57:26.194Z,102520.60
2022-12-19T02:00:01.137Z,102516.59
2022-12-19T02:02:46.575Z,102526.80
2022-12-19T02:05:19.363Z,102516.66
2022-12-19T02:07:52.637Z,102519.75
2022-12-19T02:10:25.705Z,102521.10
2022-12-19T02:12:58.946Z,102520.22
2022-12-19T02:15:35.875Z,102520.20
2022-12-19T02:18:16.266Z,102523.28
2022-12-19T02:21:29.844Z,102521.54
2022-12-19T02:24:19.425Z,102529.92
2022-12-19T02:27:39.825Z,102527.27
2022-12-19T02:30:19.338Z,102528.18
2022-12-19T02:33:09.034Z,102522.42
2022-12-19T02:35:54.750Z,102527.34
2022-12-19T02:38:37.899Z,102541.94
2022-12-19T02:41:27.168Z,102545.50
2022-12-19T02:44:01.979Z,102547.70
2022-12-19T02:46:35.940Z,102559.66
2022-12-19T02:49:09.836Z,102561.41
2022-12-19T02:51:43.144Z,102565.87
2022-12-19T02:54:16.328Z,102567.20
2022-12-19T02:57:14.165Z,102567.23
2022-12-19T03:00:18.027Z,102575.66
2022-12-19T03:03:21.147Z,102579.18
2022-12-19T03:06:28.931Z,102581.01
2022-12-19T03:09:12.320Z,102572.22
2022-12-19T03:11:46.529Z,102572.23
2022-12-19T03:14:21.564Z,102572.19
2022-12-19T03:16:56.204Z,102567.77
2022-12-19T03:19:29.303Z,102571.30
2022-12-19T03:22:03.384Z,102552.33
2022-12-19T03:24:36.478Z,102556.33
2022-12-19T03:27:16.499Z,102558.07
2022-12-19T03:30:05.446Z,102561.17
2022-12-19T03:32:39.396Z,102563.43
2022-12-19T03:35:25.502Z,102560.33
2022-12-19T03:38:03.291Z,102569.14
2022-12-19T03:40:39.113Z,102563.38
2022-12-19T03:43:12.620Z,102559.82
2022-12-19T03:45:58.868Z,102558.51
2022-12-19T03:48:59.581Z,102561.16
2022-12-19T03:51:42.990Z,102559.39
2022-12-19T03:54:28.607Z,102555.87
2022-12-19T03:57:16.855Z,102572.27
2022-12-19T04:00:03.352Z,102574.91
2022-12-19T04:02:39.890Z,102575.33
2022-12-19T04:05:15.637Z,102576.24
2022-12-19T04:07:48.822Z,102574.00
2022-12-19T04:10:24.075Z,102566.06
2022-12-19T04:13:01.597Z,102571.84
2022-12-19T04:15:51.133Z,102571.86
2022-12-19T04:18:23.916Z,102573.63
2022-12-19T04:21:07.415Z,102580.67
2022-12-19T04:23:44.619Z,102595.22
2022-12-19T04:26:19.728Z,102596.55
2022-12-19T04:28:56.311Z,102596.13
2022-12-19T04:31:41.651Z,102593.51
2022-12-19T04:34:14.281Z,102593.51
2022-12-19T04:36:47.593Z,102599.72
2022-12-19T04:39:20.339Z,102601.51
2022-12-19T04:41:53.070Z,102601.11
2022-12-19T04:44:25.906Z,102603.76
2022-12-19T04:46:58.507Z,102609.52
2022-12-19T04:49:31.378Z,102616.58
2022-12-19T04:52:04.086Z,102610.80
2022-12-19T04:54:37.073Z,102612.99
2022-12-19T04:57:09.951Z,102619.59
2022-12-19T04:59:42.566Z,102620.89
2022-12-19T05:02:15.593Z,102631.50
2022-12-19T05:04:50.359Z,102634.59
2022-12-19T05:07:24.345Z,102634.13
2022-12-19T05:10:00.534Z,102635.48
2022-12-19T05:12:34.446Z,102639.93
2022-12-19T05:15:09.044Z,102643.02
2022-12-19T05:17:43.111Z,102646.08
2022-12-19T05:20:16.230Z,102642.97
2022-12-19T05:22:49.013Z,102653.98
2022-12-19T05:25:21.703Z,102658.44
2022-12-19T05:27:55.406Z,102652.66
2022-12-19T05:30:28.145Z,102644.28
2022-12-19T05:33:01.585Z,102644.28
2022-12-19T05:35:35.635Z,102648.70
2022-12-19T05:38:08.597Z,102642.97
2022-12-19T05:40:45.390Z,102646.97
2022-12-19T05:43:29.949Z,102648.30
2022-12-19T05:46:03.212Z,102651.88
2022-12-19T05:48:36.745Z,102652.77
2022-12-19T05:51:09.253Z,102650.58
2022-12-19T05:53:42.416Z,102652.36
2022-12-19T05:56:18.150Z,102655.93
2022-12-19T05:58:51.691Z,102661.72
2022-12-19T06:01:27.304Z,102661.73
2022-12-19T06:03:59.827Z,102660.91
2022-12-19T06:06:32.418Z,102667.53
2022-12-19T06:09:05.230Z,102679.98
2022-12-19T06:11:37.932Z,102680.43
2022-12-19T06:14:13.552Z,102681.33
2022-12-19T06:16:47.188Z,102675.62
2022-12-19T06:19:24.475Z,102684.47
2022-12-19T06:21:57.387Z,102677.84
2022-12-19T06:24:30.270Z,102679.16
2022-12-19T06:27:02.855Z,102680.93
2022-12-19T06:29:35.753Z,102689.76
2022-12-19T06:32:08.987Z,102689.78
2022-12-19T06:37:16.501Z,102695.50
2022-12-19T06:39:49.106Z,102703.08
2022-12-19T06:42:23.744Z,102704.41
2022-12-19T06:44:57.136Z,102700.00
2022-12-19T06:47:30.377Z,102710.27
2022-12-19T06:50:04.360Z,102708.11
2022-12-19T06:52:38.211Z,102710.81
2022-12-19T06:55:11.644Z,102694.03
2022-12-19T06:58:00.315Z,102693.22
2022-12-19T07:00:40.625Z,102696.52
2022-12-19T07:03:15.065Z,102697.01
2022-12-19T07:05:48.137Z,102683.33
2022-12-19T07:08:20.852Z,102679.24
2022-12-19T07:10:54.480Z,102674.63
2022-12-19T07:13:27.760Z,102680.09
2022-12-19T07:16:04.567Z,102677.10
2022-12-19T07:18:41.180Z,102681.09
2022-12-19T07:21:16.322Z,102685.09
2022-12-19T07:23:48.973Z,102692.10
2022-12-19T07:26:22.376Z,102698.72
2022-12-19T07:28:55.485Z,102698.30
2022-12-19T07:31:28.352Z,102704.79
2022-12-19T07:34:00.984Z,102699.59
2022-12-19T07:36:34.417Z,102701.30
2022-12-19T07:39:08.172Z,102703.41
2022-12-19T07:41:41.277Z,102698.69
2022-12-19T07:44:15.759Z,102706.09
2022-12-19T07:46:48.617Z,102706.47
2022-12-19T07:49:22.785Z,102708.83
2022-12-19T07:51:55.588Z,102718.88
2022-12-19T07:54:28.421Z,102714.94
2022-12-19T07:57:02.118Z,102724.36
2022-12-19T07:59:39.158Z,102734.97
2022-12-19T08:02:09.774Z,102748.42
2022-12-19T08:04:43.051Z,102758.14
2022-12-19T08:07:16.034Z,102766.09
2022-12-19T08:09:49.008Z,102763.00
2022-12-19T08:12:23.497Z,102773.11
2022-12-19T08:14:57.498Z,102771.74
2022-12-19T08:17:30.680Z,102772.85
2022-12-19T08:20:03.380Z,102769.73
2022-12-19T08:22:36.399Z,102771.12
2022-12-19T08:25:09.872Z,102756.41
2022-12-19T08:27:44.090Z,102753.59
2022-12-19T08:30:17.005Z,102757.96
2022-12-19T08:32:49.771Z,102762.47
2022-12-19T08:35:23.155Z,102762.03
2022-12-19T08:37:55.661Z,102762.59
2022-12-19T08:40:28.246Z,102755.87
2022-12-19T08:43:01.210Z,102754.35
2022-12-19T08:45:34.432Z,102760.54
2022-12-19T08:48:08.338Z,102753.49
2022-12-19T08:50:41.221Z,102751.84
2022-12-19T08:53:22.737Z,102753.62
2022-12-19T08:56:00.541Z,102746.39
2022-12-19T08:58:33.206Z,102749.88
2022-12-19T09:01:11.475Z,102747.74
2022-12-19T09:04:12.270Z,102748.79
2022-12-19T09:06:19.313Z,102744.73
2022-12-19T09:08:51.710Z,102739.84
2022-12-19T09:11:26.668Z,102744.63
2022-12-19T09:13:59.564Z,102741.09
2022-12-19T09:16:32.059Z,102739.49
2022-12-19T09:19:05.799Z,102749.28
2022-12-19T09:22:01.803Z,102751.37
2022-12-19T09:24:35.157Z,102746.59
2022-12-19T09:27:09.590Z,102755.09
2022-12-19T09:29:43.070Z,102755.53
2022-12-19T09:32:19.434Z,102758.28
2022-12-19T09:34:52.780Z,102759.98
2022-12-19T09:37:25.537Z,102757.88
2022-12-19T09:39:59.600Z,102765.41
2022-12-19T09:43:16.669Z,102772.74
2022-12-19T09:46:00.609Z,102768.29
2022-12-19T09:48:34.692Z,102768.64
2022-12-19T09:51:21.227Z,102761.50
2022-12-19T09:54:13.524Z,102755.37
2022-12-19T09:56:47.003Z,102751.52
2022-12-19T09:59:49.665Z,102737.58
2022-12-19T10:02:53.987Z,102740.92
2022-12-19T10:07:08.760Z,102734.30
2022-12-19T10:08:45.817Z,102729.61
2022-12-19T10:12:44.874Z,102720.59
2022-12-19T10:14:30.240Z,102721.58
2022-12-19T10:17:30.408Z,102719.89
2022-12-19T10:20:38.892Z,102722.77
2022-12-19T10:23:36.340Z,102727.63
2022-12-19T10:26:22.447Z,102727.52
2022-12-19T10:29:30.116Z,102721.97
2022-12-19T10:32:30.630Z,102721.05
2022-12-19T10:35:03.233Z,102721.45
2022-12-19T10:37:49.735Z,102723.38
2022-12-19T10:40:48.869Z,102723.56
2022-12-19T10:43:44.781Z,102724.81
2022-12-19T10:46:48.132Z,102710.29
2022-12-19T10:49:26.455Z,102703.12
2022-12-19T10:52:05.921Z,102701.60
2022-12-19T10:54:43.240Z,102705.80
2022-12-19T10:57:35.110Z,102701.28
2022-12-19T11:00:18.449Z,102695.84
2022-12-19T11:02:53.836Z,102697.18
2022-12-19T11:05:33.266Z,102690.67
2022-12-19T11:08:11.383Z,102697.75
2022-12-19T11:11:47.808Z,102691.72
2022-12-19T11:19:30.455Z,102692.16
2022-12-19T11:20:18.990Z,102695.98
2022-12-19T11:29:16.517Z,102698.78
2022-12-19T11:29:37.272Z,102707.42
2022-12-19T11:30:06.584Z,102703.00
2022-12-19T11:30:46.944Z,102705.98
2022-12-19T11:33:17.807Z,102695.23
2022-12-19T11:35:56.755Z,102690.92
2022-12-19T11:38:53.390Z,102692.06
2022-12-19T11:41:43.505Z,102691.29
2022-12-19T11:44:37.453Z,102695.71
2022-12-19T11:47:45.293Z,102690.40
2022-12-19T11:50:36.609Z,102702.75
2022-12-19T11:53:22.187Z,102705.59
2022-12-19T11:56:15.816Z,102706.07
2022-12-19T11:58:42.321Z,102709.95
2022-12-19T12:01:55.879Z,102703.89
2022-12-19T12:04:56.069Z,102705.07
2022-12-19T12:08:43.000Z,102698.32
2022-12-19T12:15:52.252Z,102707.88
2022-12-19T12:20:32.234Z,102710.72
2022-12-19T12:31:03.928Z,102717.59
2022-12-19T12:31:08.447Z,102713.70
2022-12-19T12:31:18.282Z,102719.11
2022-12-19T12:31:54.112Z,102716.67
2022-12-19T12:32:06.162Z,102718.34
2022-12-19T12:35:08.005Z,102705.21
2022-12-19T12:35:56.637Z,102709.71
2022-12-19T12:39:06.016Z,102704.45
2022-12-19T12:42:19.291Z,102701.88
2022-12-19T12:44:52.234Z,102695.72
2022-12-19T12:47:30.360Z,102696.62
2022-12-19T12:50:05.903Z,102694.90
2022-12-19T12:52:41.913Z,102686.05
2022-12-19T12:55:40.422Z,102691.42
2022-12-19T12:58:46.447Z,102694.54
2022-12-19T13:01:33.714Z,102686.12
2022-12-19T13:04:23.169Z,102686.16
2022-12-19T13:07:06.299Z,102682.23
2022-12-19T13:09:38.906Z,102688.01
2022-12-19T13:12:37.576Z,102678.25
2022-12-19T13:15:35.745Z,102677.83
2022-12-19T13:21:19.773Z,102676.92
2022-12-19T13:23:52.507Z,102677.84
2022-12-19T13:26:47.313Z,102664.97
2022-12-19T13:29:33.589Z,102665.45
2022-12-19T13:32:15.613Z,102667.20
2022-12-19T13:35:31.175Z,102671.65
2022-12-19T13:40:00.636Z,102657.92
2022-12-19T13:41:00.434Z,102665.05
2022-12-19T13:43:49.970Z,102664.63
2022-12-19T13:46:42.944Z,102658.83
2022-12-19T13:49:31.874Z,102659.30
2022-12-19T13:52:06.078Z,102657.97
2022-12-19T13:54:52.772Z,102661.06
2022-12-19T13:57:31.572Z,102658.41
2022-12-19T14:00:07.385Z,102659.30
2022-12-19T14:02:48.738Z,102662.39
2022-12-19T14:06:17.616Z,102658.83
2022-12-19T14:08:27.958Z,102663.30
2022-12-19T14:11:41.650Z,102652.66
2022-12-19T14:14:03.439Z,102657.12
2022-12-19T14:16:40.183Z,102650.89
2022-12-19T14:19:02.412Z,102658.88
2022-12-19T14:22:03.653Z,102661.55
2022-12-19T14:24:21.234Z,102655.36
2022-12-19T14:28:21.197Z,102652.69
2022-12-19T14:30:27.815Z,102653.56
2022-12-19T14:33:46.021Z,102661.11
2022-12-19T14:36:06.875Z,102656.25
2022-12-19T14:39:01.223Z,102653.59
2022-12-19T14:40:33.115Z,102654.91
2022-12-19T14:43:58.763Z,102657.14
2022-12-19T14:52:34.427Z,102662.45
2022-12-19T14:54:00.887Z,102669.11
2022-12-19T14:54:45.256Z,102669.10
2022-12-19T14:56:13.130Z,102667.77
2022-12-19T14:58:52.848Z,102662.44
2022-12-19T15:01:08.914Z,102658.02
2022-12-19T15:03:33.640Z,102654.02
2022-12-19T15:06:31.561Z,102648.23
2022-12-19T15:10:24.047Z,102644.71
2022-12-19T15:12:05.863Z,102643.37
2022-12-19T15:14:56.749Z,102641.16
2022-12-19T15:17:21.878Z,102639.81
2022-12-19T15:19:54.600Z,102640.25
2022-12-19T15:22:27.222Z,102636.72
2022-12-19T15:24:59.758Z,102642.47
2022-12-19T15:27:32.675Z,102645.12
2022-12-19T15:30:07.255Z,102650.45
2022-12-19T15:32:39.993Z,102642.91
2022-12-19T15:35:18.511Z,102647.36
2022-12-19T15:37:52.904Z,102648.25
2022-12-19T15:40:24.626Z,102646.45
2022-12-19T15:42:57.865Z,102653.57
2022-12-19T15:45:30.886Z,102646.02
2022-12-19T15:48:03.764Z,102646.44
2022-12-19T15:50:37.888Z,102650.45
2022-12-19T15:53:40.269Z,102644.67
2022-12-19T15:56:03.638Z,102644.67
2022-12-19T15:58:36.371Z,102643.33
2022-12-19T16:01:09.069Z,102649.53
2022-12-19T16:03:42.250Z,102647.33
2022-12-19T16:06:15.385Z,102648.64
2022-12-19T16:08:48.220Z,102650.83
2022-12-19T16:11:25.845Z,102642.87
2022-12-19T16:13:59.136Z,102642.38
2022-12-19T16:16:31.761Z,102649.50
2022-12-19T16:19:04.673Z,102653.02
2022-12-19T16:21:38.249Z,102651.69
2022-12-19T16:24:10.709Z,102651.69
2022-12-19T16:26:43.516Z,102644.18
2022-12-19T16:29:25.991Z,102641.95
2022-12-19T16:32:00.424Z,102634.88
2022-12-19T16:34:33.236Z,102637.97
2022-12-19T16:37:06.702Z,102633.55
2022-12-19T16:39:39.651Z,102628.69
2022-12-19T16:42:18.664Z,102626.48
2022-12-19T16:44:51.447Z,102614.97
2022-12-19T16:47:24.338Z,102626.52
2022-12-19T16:49:57.306Z,102629.18
2022-12-19T16:52:30.066Z,102625.19
2022-12-19T16:55:02.820Z,102622.51
2022-12-19T16:57:35.776Z,102618.09
2022-12-19T17:00:11.275Z,102610.55
2022-12-19T17:02:49.703Z,102605.23
2022-12-19T17:05:26.677Z,102606.13
2022-12-19T17:07:59.537Z,102604.34
2022-12-19T17:10:33.885Z,102591.93
2022-12-19T17:13:05.591Z,102594.16
2022-12-19T17:15:38.940Z,102590.59
2022-12-19T17:18:37.169Z,102589.73
2022-12-19T17:21:14.001Z,102592.39
2022-12-19T17:23:50.210Z,102575.96
2022-12-19T17:26:22.862Z,102578.18
2022-12-19T17:28:55.966Z,102570.19
2022-12-19T17:31:29.670Z,102566.66
2022-12-19T17:34:02.673Z,102568.42
2022-12-19T17:36:37.848Z,102568.41
2022-12-19T17:39:21.870Z,102561.77
2022-12-19T17:41:55.476Z,102558.67
2022-12-19T17:44:29.820Z,102559.11
2022-12-19T17:47:02.961Z,102560.02
2022-12-19T17:49:35.566Z,102555.13
2022-12-19T17:52:14.164Z,102555.58
2022-12-19T17:54:46.861Z,102553.34
2022-12-19T17:57:19.779Z,102556.01
2022-12-19T17:59:52.312Z,102557.34
2022-12-19T18:02:26.276Z,102554.69
2022-12-19T18:04:59.171Z,102554.23
2022-12-19T18:07:32.131Z,102551.57
2022-12-19T18:10:07.139Z,102554.20
2022-12-19T18:12:40.559Z,102549.34
2022-12-19T18:15:12.967Z,102555.53
2022-12-19T18:17:45.570Z,102550.61
2022-12-19T18:20:31.976Z,102559.45
2022-12-19T18:23:02.329Z,102557.66
2022-12-19T18:25:36.667Z,102562.06
2022-12-19T18:28:09.508Z,102555.89
2022-12-19T18:30:42.784Z,102544.80
2022-12-19T18:33:21.620Z,102547.92
2022-12-19T18:35:54.231Z,102536.39
2022-12-19T18:38:26.934Z,102532.86
2022-12-19T18:40:59.463Z,102532.84
2022-12-19T18:43:33.010Z,102535.48
2022-12-19T18:46:06.391Z,102532.36
2022-12-19T18:48:39.342Z,102525.28
2022-12-19T18:51:16.736Z,102531.94
2022-12-19T18:53:49.732Z,102517.33
2022-12-19T18:56:22.408Z,102515.98
2022-12-19T18:58:55.314Z,102513.78
2022-12-19T19:01:28.572Z,102507.56
2022-12-19T19:04:01.436Z,102504.49
2022-12-19T19:06:37.831Z,102510.23
2022-12-19T19:09:17.150Z,102515.11
2022-12-19T19:12:04.591Z,102509.78
2022-12-19T19:14:37.471Z,102508.44
2022-12-19T19:17:20.572Z,102507.97
2022-12-19T19:19:53.312Z,102503.12
2022-12-19T19:22:26.089Z,102500.03
2022-12-19T19:24:59.767Z,102496.05
2022-12-19T19:27:32.348Z,102494.72
2022-12-19T19:30:07.337Z,102496.04
2022-12-19T19:32:44.329Z,102501.81
2022-12-19T19:35:20.058Z,102494.70
2022-12-19T19:37:53.577Z,102488.52
2022-12-19T19:40:27.320Z,102492.94
2022-12-19T19:43:00.474Z,102496.49
2022-12-19T19:45:36.828Z,102496.03
2022-12-19T19:48:10.227Z,102489.86
2022-12-19T19:50:42.785Z,102494.72
2022-12-19T19:53:15.511Z,102497.41
2022-12-19T19:56:01.566Z,102496.08
2022-12-19T19:58:34.565Z,102491.66
2022-12-19T20:01:12.363Z,102491.19
2022-12-19T20:03:45.375Z,102487.70
2022-12-19T20:06:19.437Z,102487.70
2022-12-19T20:08:52.632Z,102489.91
2022-12-19T20:11:26.263Z,102487.72
2022-12-19T20:13:59.014Z,102481.08
2022-12-19T20:16:33.062Z,102480.22
2022-12-19T20:19:06.361Z,102489.50
2022-12-19T20:21:39.285Z,102490.41
2022-12-19T20:24:12.946Z,102479.78
2022-12-19T20:26:45.993Z,102474.47
2022-12-19T20:29:18.518Z,102471.38
2022-12-19T20:31:51.012Z,102459.41
2022-12-19T20:34:24.325Z,102459.87
2022-12-19T20:36:57.967Z,102467.37
2022-12-19T20:39:34.849Z,102461.20
2022-12-19T20:42:09.283Z,102460.31
2022-12-19T20:44:40.959Z,102447.45
2022-12-19T20:49:58.383Z,102446.59
2022-12-19T20:52:31.321Z,102452.33
2022-12-19T20:55:04.860Z,102431.06
2022-12-19T20:57:37.808Z,102425.32
2022-12-19T21:00:13.210Z,102433.28
2022-12-19T21:03:25.668Z,102427.52
2022-12-19T21:05:21.625Z,102430.63
2022-12-19T21:07:54.535Z,102423.98
2022-12-19T21:10:28.053Z,102426.21
2022-12-19T21:13:01.345Z,102427.54
2022-12-19T21:15:34.946Z,102426.64
2022-12-19T21:18:07.470Z,102419.56
2022-12-19T21:20:40.350Z,102418.66
2022-12-19T21:23:12.801Z,102417.80
2022-12-19T21:25:45.954Z,102413.35
2022-12-19T21:28:18.554Z,102409.80
2022-12-19T21:31:06.778Z,102407.16
2022-12-19T21:33:39.509Z,102406.73
2022-12-19T21:36:14.851Z,102393.88
2022-12-19T21:38:48.881Z,102397.86
2022-12-19T21:41:21.487Z,102401.41
2022-12-19T21:43:55.519Z,102393.88
2022-12-19T21:46:33.140Z,102385.90
2022-12-19T21:49:05.727Z,102383.70
2022-12-19T21:51:38.627Z,102369.98
2022-12-19T21:54:11.260Z,102369.52
2022-12-19T21:56:43.793Z,102359.34
2022-12-19T21:59:17.444Z,102365.55
2022-12-19T22:01:50.480Z,102379.67
2022-12-19T22:04:25.471Z,102367.72
2022-12-19T22:06:58.470Z,102374.36
2022-12-19T22:09:31.210Z,102370.84
2022-12-19T22:12:03.717Z,102363.31
2022-12-19T22:14:36.479Z,102353.13
2022-12-19T22:17:09.709Z,102348.28
2022-12-19T22:19:42.270Z,102346.50
2022-12-19T22:22:14.976Z,102340.33
2022-12-19T22:24:47.489Z,102341.66
2022-12-19T22:27:20.875Z,102342.08
2022-12-19T22:29:53.922Z,102334.55
2022-12-19T22:32:26.867Z,102334.11
2022-12-19T22:34:59.372Z,102338.53
2022-12-19T22:37:32.181Z,102330.56
2022-12-19T22:40:05.253Z,102323.92
